Time;durP1;ratioP1;P1;durP2;ratioP2;P2;SDS_P1;SDS_P2;PMS_P1;PMS_P2;Temp;Humidity;BMP_temperature;BMP_pressure;BME280_temperature;BME280_humidity;BME280_pressure;Samples;Min_cycle;Max_cycle;Signal;HPM_P1;HPM_P2
2022/06/19 00:00:42;;;;;;;15.53;4.87;;;;;;;22.08;63.79;99404.06;5037863;28;20232;-77
2022/06/19 00:03:13;;;;;;;20.60;5.17;;;;;;;22.19;62.89;99396.75;5050521;28;20173;-77
2022/06/19 00:05:39;;;;;;;16.50;5.10;;;;;;;22.31;62.80;99405.00;5049871;28;20598;-77
2022/06/19 00:08:05;;;;;;;18.03;5.40;;;;;;;22.26;63.44;99405.53;5051326;28;20181;-77
2022/06/19 00:10:30;;;;;;;12.07;6.17;;;;;;;22.25;63.59;99406.53;5039797;28;20276;-75
2022/06/19 00:12:55;;;;;;;14.67;7.73;;;;;;;22.16;63.75;99400.53;5042320;28;20185;-75
2022/06/19 00:15:21;;;;;;;13.60;4.57;;;;;;;22.06;64.36;99407.84;5048822;28;20280;-76
2022/06/19 00:17:46;;;;;;;13.83;4.70;;;;;;;21.99;64.84;99402.50;5041807;28;20184;-75
2022/06/19 00:20:12;;;;;;;15.97;4.43;;;;;;;21.95;66.09;99403.81;5039740;28;20625;-77
2022/06/19 00:22:38;;;;;;;11.80;4.53;;;;;;;22.02;65.30;99404.75;5034780;28;20275;-76
2022/06/19 00:25:04;;;;;;;18.57;7.93;;;;;;;21.88;66.20;99402.88;5051333;28;20259;-74
2022/06/19 00:27:30;;;;;;;17.07;7.23;;;;;;;21.81;66.86;99397.53;5050402;28;20251;-75
2022/06/19 00:29:55;;;;;;;18.83;4.97;;;;;;;21.90;66.23;99390.44;5051083;28;20201;-76
2022/06/19 00:32:20;;;;;;;11.13;4.63;;;;;;;21.87;66.14;99389.00;5024230;28;20238;-74
2022/06/19 00:34:46;;;;;;;8.80;3.87;;;;;;;21.85;66.75;99390.97;5049605;28;20310;-74
2022/06/19 00:37:11;;;;;;;13.43;4.13;;;;;;;21.85;67.02;99382.31;5049114;28;20272;-75
2022/06/19 00:39:39;;;;;;;15.20;4.53;;;;;;;21.75;67.91;99383.34;5050597;28;20198;-75
2022/06/19 00:42:06;;;;;;;13.77;4.67;;;;;;;21.70;67.85;99380.44;5040162;28;20787;-76
2022/06/19 00:44:31;;;;;;;13.90;4.50;;;;;;;21.58;68.59;99384.44;5049439;28;20181;-75
2022/06/19 00:47:13;;;;;;;16.27;4.70;;;;;;;21.29;70.39;99376.22;5050398;28;20180;-76
2022/06/19 00:49:46;;;;;;;11.23;4.53;;;;;;;21.28;70.53;99350.22;5050673;28;20210;-76
2022/06/19 00:52:16;;;;;;;13.43;5.17;;;;;;;21.29;70.07;99320.47;5025158;28;20237;-77
2022/06/19 00:54:49;;;;;;;13.47;5.13;;;;;;;21.29;70.70;99330.94;5051032;28;20189;-76
2022/06/19 00:57:15;;;;;;;15.83;4.27;;;;;;;21.39;70.30;99331.53;5062980;28;20663;-77
2022/06/19 00:59:45;;;;;;;15.10;4.70;;;;;;;21.50;70.43;99332.94;5050898;28;20284;-78
2022/06/19 01:02:14;;;;;;;16.90;5.10;;;;;;;21.29;70.74;99329.13;5024898;28;20229;-78
2022/06/19 01:04:47;;;;;;;13.70;4.50;;;;;;;21.14;70.32;99307.31;5050959;28;20181;-78
2022/06/19 01:07:13;;;;;;;13.63;4.73;;;;;;;21.19;70.60;99310.22;5050125;28;20196;-78
2022/06/19 01:09:38;;;;;;;17.23;4.40;;;;;;;21.23;69.17;99295.00;5047241;28;20193;-78
2022/06/19 01:12:04;;;;;;;17.00;4.50;;;;;;;21.43;68.30;99296.22;5030512;28;20233;-78
2022/06/19 01:14:31;;;;;;;17.77;5.23;;;;;;;21.49;67.19;99292.06;5046401;28;20235;-79
2022/06/19 01:16:57;;;;;;;15.83;5.07;;;;;;;21.54;66.12;99279.25;5054152;28;20232;-78
2022/06/19 01:19:27;;;;;;;16.57;4.80;;;;;;;21.64;64.10;99276.44;5054831;28;20726;-79
2022/06/19 01:22:02;;;;;;;15.53;4.70;;;;;;;21.77;63.31;99300.22;5030052;28;20251;-78
2022/06/19 01:24:55;;;;;;;17.53;5.03;;;;;;;21.76;64.15;99300.41;5052856;28;20242;-78
2022/06/19 01:30:07;;;;;;;14.33;4.53;;;;;;;21.73;64.47;99308.59;5044346;28;20204;-77
2022/06/19 01:32:35;;;;;;;18.20;4.63;;;;;;;21.53;63.09;99306.44;5037338;28;20260;-78
2022/06/19 01:35:02;;;;;;;11.40;4.27;;;;;;;21.79;61.12;99304.47;5054529;28;20192;-77
2022/06/19 01:37:29;;;;;;;13.67;4.40;;;;;;;21.93;60.24;99312.38;5053690;28;20194;-78
2022/06/19 01:39:56;;;;;;;18.27;5.17;;;;;;;22.10;59.76;99320.06;5054111;28;20263;-79
2022/06/19 01:42:23;;;;;;;20.50;4.23;;;;;;;22.08;59.03;99307.16;5027003;28;20221;-77
2022/06/19 01:44:52;;;;;;;21.23;6.00;;;;;;;22.15;58.55;99309.06;5054347;28;20315;-77
2022/06/19 01:47:17;;;;;;;16.63;4.50;;;;;;;22.27;58.16;99297.16;5052357;28;20625;-77
2022/06/19 01:49:47;;;;;;;17.17;4.97;;;;;;;22.30;57.32;99288.13;5052838;28;20180;-78
2022/06/19 01:52:12;;;;;;;17.17;4.23;;;;;;;22.32;57.24;99288.75;5042929;28;20692;-79
2022/06/19 01:54:42;;;;;;;18.67;4.60;;;;;;;22.34;57.58;99284.13;5054024;28;20180;-78
2022/06/19 01:57:09;;;;;;;21.17;4.90;;;;;;;22.29;58.46;99291.72;5067445;28;20197;-73
2022/06/19 01:59:36;;;;;;;9.47;3.83;;;;;;;22.27;59.11;99289.28;5053190;28;20208;-79
2022/06/19 02:02:05;;;;;;;14.53;4.57;;;;;;;22.19;59.87;99290.19;5042569;28;20256;-76
2022/06/19 02:04:31;;;;;;;9.80;4.53;;;;;;;22.09;61.31;99300.94;5053972;28;20208;-78
2022/06/19 02:07:01;;;;;;;12.77;4.20;;;;;;;21.90;61.83;99298.81;5053158;28;20252;-77
2022/06/19 02:09:27;;;;;;;13.97;4.17;;;;;;;21.77;63.63;99300.22;5039333;28;20185;-76
2022/06/19 02:11:53;;;;;;;11.50;4.23;;;;;;;21.64;64.33;99297.38;5039947;28;20296;-77
2022/06/19 02:14:19;;;;;;;12.17;4.17;;;;;;;21.46;65.33;99302.88;5052981;28;20178;-79
2022/06/19 02:16:47;;;;;;;14.63;4.70;;;;;;;21.44;65.47;99302.25;5051731;28;20691;-78
2022/06/19 02:19:13;;;;;;;14.13;4.87;;;;;;;21.04;67.85;99291.84;5053405;28;20197;-77
2022/06/19 02:21:41;;;;;;;12.17;4.53;;;;;;;20.88;68.88;99295.34;5042221;28;20774;-79
2022/06/19 02:24:13;;;;;;;17.50;4.03;;;;;;;21.04;68.13;99288.44;5053100;28;20221;-79
2022/06/19 02:26:41;;;;;;;18.53;5.20;;;;;;;21.11;69.04;99291.97;5051483;28;20173;-77
2022/06/19 02:29:09;;;;;;;16.63;4.70;;;;;;;21.02;70.11;99296.44;5052041;28;20201;-78
2022/06/19 02:31:37;;;;;;;17.37;5.43;;;;;;;20.78;70.92;99295.56;5031959;28;20246;-78
2022/06/19 02:34:07;;;;;;;15.10;4.33;;;;;;;20.79;71.52;99293.78;5052881;28;20281;-78
2022/06/19 02:36:34;;;;;;;15.80;4.97;;;;;;;20.87;70.58;99290.31;5052972;28;20674;-78
2022/06/19 02:39:08;;;;;;;19.77;5.53;;;;;;;20.85;71.67;99289.66;5051832;28;20189;-78
2022/06/19 02:41:42;;;;;;;17.43;5.83;;;;;;;20.68;72.10;99288.88;5042097;28;20723;-77
2022/06/19 02:44:08;;;;;;;11.93;5.23;;;;;;;20.74;72.42;99283.81;5052910;28;20188;-79
2022/06/19 02:46:33;;;;;;;17.37;4.97;;;;;;;20.84;71.86;99291.47;5052525;28;20189;-77
2022/06/19 02:48:58;;;;;;;13.47;4.90;;;;;;;20.69;72.46;99285.28;5051502;28;20193;-79
2022/06/19 02:51:23;;;;;;;20.47;5.20;;;;;;;20.54;73.45;99275.53;5033765;28;20233;-78
2022/06/19 02:53:49;;;;;;;13.77;4.97;;;;;;;20.67;72.74;99275.00;5052235;28;20181;-79
2022/06/19 02:56:14;;;;;;;10.07;4.13;;;;;;;20.72;72.65;99274.53;5061581;28;20215;-79
2022/06/19 02:58:39;;;;;;;20.73;4.70;;;;;;;20.69;72.75;99270.44;5057514;28;20256;-79
2022/06/19 03:01:04;;;;;;;16.40;4.13;;;;;;;20.53;73.91;99260.84;5031923;28;20225;-78
2022/06/19 03:03:39;;;;;;;16.90;4.40;;;;;;;20.58;73.16;99257.75;5043476;28;20550;-79
2022/06/19 03:06:06;;;;;;;11.93;4.67;;;;;;;20.64;73.07;99257.88;5052529;28;20176;-79
2022/06/19 03:08:31;;;;;;;14.93;4.63;;;;;;;20.75;72.55;99245.44;5047345;28;20185;-78
2022/06/19 03:10:57;;;;;;;9.97;3.97;;;;;;;20.86;72.75;99236.41;5041196;28;20714;-60
2022/06/19 03:13:22;;;;;;;11.57;4.20;;;;;;;21.01;71.41;99244.31;5049449;28;20657;-60
2022/06/19 03:15:58;;;;;;;10.77;4.27;;;;;;;21.12;70.59;99249.97;5041119;28;20279;-59
2022/06/19 03:18:24;;;;;;;13.73;5.00;;;;;;;21.21;70.39;99239.44;5044149;28;20231;-60
2022/06/19 03:20:49;;;;;;;16.17;4.93;;;;;;;21.16;70.71;99242.59;5048810;28;20575;-60
2022/06/19 03:23:14;;;;;;;12.47;4.07;;;;;;;21.16;70.69;99239.16;5061565;28;20181;-60
2022/06/19 03:25:39;;;;;;;15.93;4.90;;;;;;;21.06;71.13;99242.81;5050112;28;20229;-60
2022/06/19 03:28:05;;;;;;;16.53;5.47;;;;;;;20.77;73.50;99230.41;5051861;28;20544;-61
2022/06/19 03:30:30;;;;;;;14.03;5.37;;;;;;;20.63;74.96;99237.13;5021882;28;20217;-60
2022/06/19 03:32:55;;;;;;;11.50;4.40;;;;;;;20.77;73.86;99231.19;5051696;28;20181;-61
2022/06/19 03:35:21;;;;;;;14.83;4.30;;;;;;;20.94;72.94;99241.59;5052267;28;20201;-60
2022/06/19 03:37:46;;;;;;;12.90;4.37;;;;;;;20.98;72.14;99242.88;5051028;28;20647;-59
2022/06/19 03:40:13;;;;;;;20.07;5.73;;;;;;;20.75;73.87;99246.25;5042093;28;20184;-60
2022/06/19 03:42:38;;;;;;;14.53;4.83;;;;;;;20.80;74.62;99245.72;5050754;28;20182;-60
2022/06/19 03:45:05;;;;;;;14.37;4.93;;;;;;;20.69;73.52;99233.00;5051745;28;20181;-61
2022/06/19 03:47:30;;;;;;;21.37;4.50;;;;;;;20.91;72.55;99234.06;5051445;28;20613;-60
2022/06/19 03:49:56;;;;;;;13.97;5.50;;;;;;;21.00;71.49;99240.91;5051950;28;20209;-60
2022/06/19 03:52:21;;;;;;;14.07;4.43;;;;;;;21.11;70.75;99237.88;5040728;28;20307;-60
2022/06/19 03:54:46;;;;;;;13.40;4.23;;;;;;;21.06;71.17;99236.78;5051806;28;20277;-60
2022/06/19 03:57:14;;;;;;;11.77;4.77;;;;;;;21.17;70.65;99238.97;5065271;28;20548;-60
2022/06/19 03:59:39;;;;;;;12.00;4.83;;;;;;;21.40;69.74;99249.44;5051546;28;20184;-60
2022/06/19 04:02:05;;;;;;;15.60;5.73;;;;;;;21.44;68.99;99247.31;5040261;28;20225;-60
2022/06/19 04:04:31;;;;;;;15.23;4.60;;;;;;;21.81;67.38;99240.47;5039119;28;20549;-60
2022/06/19 04:06:56;;;;;;;13.50;4.13;;;;;;;21.97;66.55;99233.44;5043098;28;20192;-59
2022/06/19 04:09:22;;;;;;;15.93;4.77;;;;;;;22.14;66.60;99236.72;5050940;28;20189;-60
2022/06/19 04:11:47;;;;;;;14.17;4.57;;;;;;;22.00;66.23;99235.72;5037161;28;20228;-60
2022/06/19 04:14:15;;;;;;;9.70;3.97;;;;;;;21.84;67.12;99247.16;5051040;28;20204;-60
2022/06/19 04:16:42;;;;;;;15.83;4.40;;;;;;;22.08;65.52;99257.41;5051104;28;20255;-60
2022/06/19 04:19:08;;;;;;;11.60;4.80;;;;;;;22.30;65.98;99264.53;5051083;28;20188;-60
2022/06/19 04:21:41;;;;;;;14.27;4.47;;;;;;;22.39;66.70;99274.00;5040640;28;20232;-59
2022/06/19 04:24:09;;;;;;;12.53;4.37;;;;;;;22.42;67.79;99263.13;5050981;28;20224;-60
2022/06/19 04:26:36;;;;;;;10.47;4.73;;;;;;;22.43;69.57;99249.03;5050853;28;20635;-59
2022/06/19 04:29:03;;;;;;;9.83;4.53;;;;;;;22.55;68.52;99250.19;5051166;28;20232;-59
2022/06/19 04:31:28;;;;;;;13.37;4.67;;;;;;;22.50;67.15;99249.13;5039953;28;20221;-60
2022/06/19 04:33:54;;;;;;;11.00;4.23;;;;;;;22.59;66.39;99247.19;5051027;28;20251;-60
2022/06/19 04:36:24;;;;;;;18.20;4.83;;;;;;;22.47;66.54;99244.25;5050555;28;20276;-61
2022/06/19 04:38:50;;;;;;;16.57;4.83;;;;;;;22.39;66.56;99239.94;5051424;28;20200;-60
2022/06/19 04:41:20;;;;;;;17.97;4.93;;;;;;;22.42;66.28;99230.88;5040204;28;20221;-60
2022/06/19 04:43:46;;;;;;;10.00;4.30;;;;;;;22.71;65.83;99227.38;5050494;28;20234;-60
2022/06/19 04:46:11;;;;;;;15.50;4.63;;;;;;;23.07;62.53;99223.97;5050621;28;20212;-61
2022/06/19 04:48:37;;;;;;;18.67;4.67;;;;;;;23.17;62.15;99227.13;5050281;28;20241;-60
2022/06/19 04:51:03;;;;;;;14.30;4.53;;;;;;;23.29;60.55;99223.97;5040338;28;20316;-60
2022/06/19 04:53:29;;;;;;;14.87;4.37;;;;;;;23.52;59.46;99218.53;5040814;28;20296;-60
2022/06/19 04:55:54;;;;;;;20.07;4.77;;;;;;;23.87;58.21;99217.78;5057239;28;20189;-60
2022/06/19 04:58:23;;;;;;;19.30;4.60;;;;;;;24.13;57.62;99220.56;5057961;28;20680;-60
2022/06/19 05:00:50;;;;;;;19.53;4.73;;;;;;;24.33;55.75;99219.88;5040534;28;20373;-60
2022/06/19 05:03:16;;;;;;;10.17;4.00;;;;;;;24.42;56.76;99233.66;5047229;28;20273;-60
2022/06/19 05:05:42;;;;;;;10.50;4.17;;;;;;;24.65;54.79;99231.56;5042305;28;20182;-59
2022/06/19 05:08:07;;;;;;;18.77;4.67;;;;;;;24.67;54.54;99223.47;5050406;28;20203;-59
2022/06/19 05:10:32;;;;;;;18.43;4.70;;;;;;;24.55;54.54;99211.88;5039369;28;20244;-60
2022/06/19 05:12:58;;;;;;;16.40;4.73;;;;;;;24.57;54.62;99215.13;5037191;28;20205;-60
2022/06/19 05:15:23;;;;;;;17.23;4.73;;;;;;;24.80;51.91;99217.44;5050854;28;20197;-60
2022/06/19 05:17:48;;;;;;;13.97;3.93;;;;;;;25.00;51.17;99221.97;5050003;28;20224;-60
2022/06/19 05:20:14;;;;;;;11.73;3.57;;;;;;;25.23;52.12;99232.09;5040671;28;20569;-61
2022/06/19 05:22:39;;;;;;;23.67;4.87;;;;;;;25.33;49.84;99239.59;5047140;28;20550;-60
2022/06/19 05:25:08;;;;;;;11.67;4.67;;;;;;;25.58;50.23;99243.28;5050585;28;20668;-60
2022/06/19 05:27:38;;;;;;;14.03;4.67;;;;;;;25.89;48.04;99243.69;5049940;28;20181;-60
2022/06/19 05:30:05;;;;;;;21.50;4.80;;;;;;;26.29;46.38;99232.25;5042050;28;20268;-61
2022/06/19 05:32:30;;;;;;;19.23;4.80;;;;;;;26.17;45.73;99216.28;5049317;28;20310;-60
2022/06/19 05:34:55;;;;;;;17.77;4.43;;;;;;;26.33;45.63;99221.06;5050575;28;20673;-60
2022/06/19 05:37:20;;;;;;;18.95;4.47;;;;;;;26.69;45.76;99234.72;5050020;28;20355;-61
2022/06/19 05:39:46;;;;;;;20.55;4.72;;;;;;;26.91;43.49;99240.53;5050196;28;20174;-61
2022/06/19 05:42:11;;;;;;;22.02;5.10;;;;;;;27.20;43.13;99246.22;5039476;28;20708;-61
2022/06/19 05:44:37;;;;;;;19.58;4.78;;;;;;;27.42;42.41;99240.63;5050537;28;20220;-61
2022/06/19 05:47:02;;;;;;;21.88;5.25;;;;;;;27.43;43.41;99240.41;5050119;28;20189;-61
2022/06/19 05:49:28;;;;;;;17.98;4.88;;;;;;;27.39;42.54;99236.56;5050310;28;20601;-61
2022/06/19 05:51:53;;;;;;;20.00;5.65;;;;;;;27.68;42.14;99242.22;5039552;28;20320;-61
2022/06/19 05:54:18;;;;;;;17.65;5.20;;;;;;;27.97;41.26;99245.22;5050264;28;20181;-61
2022/06/19 05:56:43;;;;;;;16.60;4.32;;;;;;;28.20;41.05;99235.88;5063358;28;20196;-61
2022/06/19 05:59:09;;;;;;;20.65;4.97;;;;;;;28.50;39.65;99233.25;5051213;28;20181;-61
2022/06/19 06:01:34;;;;;;;15.35;5.03;;;;;;;28.79;39.42;99236.97;5050603;28;20221;-60
2022/06/19 06:03:59;;;;;;;14.10;4.82;;;;;;;29.44;37.72;99234.63;5042191;28;20177;-60
2022/06/19 06:06:30;;;;;;;8.82;4.35;;;;;;;30.09;36.13;99236.38;5053383;28;20533;-60
2022/06/19 06:08:56;;;;;;;14.88;4.45;;;;;;;30.46;35.79;99245.03;5052152;28;20181;-71
2022/06/19 06:11:22;;;;;;;21.52;5.47;;;;;;;31.13;34.52;99244.44;5056448;28;20234;-71
2022/06/19 06:13:48;;;;;;;17.23;4.65;;;;;;;32.89;31.63;99239.59;5068430;28;20181;-71
2022/06/19 06:16:16;;;;;;;12.13;4.78;;;;;;;33.71;30.22;99252.75;5052767;28;20259;-71
2022/06/19 06:18:42;;;;;;;14.95;4.60;;;;;;;34.23;29.26;99253.03;5052691;28;20186;-72
2022/06/19 06:21:12;;;;;;;22.27;5.20;;;;;;;34.67;29.00;99252.66;5038179;28;20316;-71
2022/06/19 06:23:37;;;;;;;18.65;4.85;;;;;;;35.58;27.07;99241.47;5032670;28;20498;-72
2022/06/19 06:26:08;;;;;;;16.20;5.18;;;;;;;35.02;28.37;99245.78;5064940;28;20188;-70
2022/06/19 06:28:35;;;;;;;15.75;5.03;;;;;;;35.52;27.86;99238.00;5052614;28;20209;-72
2022/06/19 06:31:02;;;;;;;13.60;4.43;;;;;;;36.30;27.47;99238.56;5042313;28;20577;-73
2022/06/19 06:33:28;;;;;;;13.82;5.30;;;;;;;36.26;27.33;99237.53;5028204;28;20193;-73
2022/06/19 06:35:54;;;;;;;13.68;4.85;;;;;;;36.23;27.58;99238.06;5052494;28;20439;-72
2022/06/19 06:38:19;;;;;;;14.85;5.22;;;;;;;36.09;27.77;99245.88;5048198;28;20238;-72
2022/06/19 06:40:45;;;;;;;19.13;5.07;;;;;;;37.63;26.39;99245.91;5030752;28;20229;-72
2022/06/19 06:43:10;;;;;;;15.25;5.50;;;;;;;37.70;25.15;99245.56;5038659;28;20241;-72
2022/06/19 06:45:36;;;;;;;14.85;4.93;;;;;;;37.85;26.09;99255.38;5051944;28;20629;-72
2022/06/19 06:48:02;;;;;;;11.73;4.80;;;;;;;37.42;26.52;99242.66;5052491;28;20398;-72
2022/06/19 06:50:27;;;;;;;13.48;5.47;;;;;;;38.06;26.07;99248.66;5040803;28;20256;-72
2022/06/19 06:52:53;;;;;;;10.20;4.88;;;;;;;38.59;24.68;99247.72;5035769;28;20570;-71
2022/06/19 06:55:18;;;;;;;15.27;5.05;;;;;;;36.94;26.59;99241.44;5052506;28;20637;-71
2022/06/19 06:57:43;;;;;;;14.68;5.00;;;;;;;35.56;28.62;99240.94;5051245;28;20227;-71
2022/06/19 07:00:18;;;;;;;11.18;4.63;;;;;;;36.47;27.39;99242.78;5029576;28;20200;-72
2022/06/19 07:02:43;;;;;;;12.35;5.10;;;;;;;38.17;25.83;99245.84;5045100;28;20252;-71
2022/06/19 07:05:09;;;;;;;8.13;4.78;;;;;;;38.25;24.32;99253.25;5059932;28;20706;-72
2022/06/19 07:07:34;;;;;;;9.82;4.93;;;;;;;38.82;24.38;99263.25;5052044;28;20181;-72
2022/06/19 07:10:00;;;;;;;14.90;5.05;;;;;;;38.26;24.68;99258.34;5052458;28;20609;-72
2022/06/19 07:12:25;;;;;;;12.10;5.88;;;;;;;39.80;23.75;99256.22;5026382;28;20228;-72
2022/06/19 07:14:51;;;;;;;12.23;4.78;;;;;;;39.97;22.98;99248.34;5052412;28;20216;-73
2022/06/19 07:17:16;;;;;;;12.05;4.40;;;;;;;39.45;24.00;99259.28;5039244;28;20232;-71
2022/06/19 07:19:41;;;;;;;11.73;5.18;;;;;;;37.69;25.44;99254.72;5050700;28;20386;-72
2022/06/19 07:22:11;;;;;;;13.25;4.68;;;;;;;39.46;24.15;99247.41;5041530;28;20327;-71
2022/06/19 07:24:36;;;;;;;11.57;4.60;;;;;;;40.25;23.28;99258.28;5052040;28;20236;-71
2022/06/19 07:27:01;;;;;;;11.15;5.35;;;;;;;39.61;23.97;99258.97;5051894;28;20613;-71
2022/06/19 07:29:27;;;;;;;6.97;4.45;;;;;;;40.25;23.02;99253.69;5051733;28;20216;-69
2022/06/19 07:31:53;;;;;;;13.32;4.70;;;;;;;39.75;23.74;99248.25;5009171;28;20673;-71
2022/06/19 07:34:18;;;;;;;7.65;4.45;;;;;;;39.58;23.06;99246.13;5051894;28;20639;-71
2022/06/19 07:36:44;;;;;;;8.98;4.47;;;;;;;39.45;23.26;99248.50;5051770;28;20201;-71
2022/06/19 07:39:09;;;;;;;12.18;5.32;;;;;;;39.68;22.64;99252.16;5052237;28;20196;-70
2022/06/19 07:41:34;;;;;;;7.15;4.32;;;;;;;39.63;22.78;99259.47;5040755;28;20351;-71
2022/06/19 07:43:59;;;;;;;14.23;5.05;;;;;;;39.35;22.68;99259.47;5046877;28;20189;-71
2022/06/19 07:46:25;;;;;;;7.18;4.22;;;;;;;38.96;23.47;99261.41;5051481;28;20192;-71
2022/06/19 07:51:34;;;;;;;9.85;4.63;;;;;;;40.09;22.98;99250.53;5040708;28;20278;-71
2022/06/19 07:54:01;;;;;;;10.25;4.97;;;;;;;39.97;22.28;99250.25;5051325;28;20174;-71
2022/06/19 07:56:27;;;;;;;8.30;4.53;;;;;;;40.33;22.17;99255.66;5047320;28;20954;-71
2022/06/19 07:58:53;;;;;;;7.85;4.63;;;;;;;40.23;22.09;99239.75;5039159;28;20196;-72
2022/06/19 08:01:18;;;;;;;12.02;4.45;;;;;;;40.26;22.66;99255.28;5040733;28;20322;-71
2022/06/19 08:03:43;;;;;;;7.57;4.65;;;;;;;40.63;21.60;99241.84;5050994;28;20220;-71
2022/06/19 08:06:09;;;;;;;11.77;4.60;;;;;;;41.61;21.55;99245.59;5051326;28;20605;-71
2022/06/19 08:08:35;;;;;;;10.45;4.55;;;;;;;41.63;21.23;99239.88;5051792;28;20263;-71
2022/06/19 08:11:01;;;;;;;8.45;4.40;;;;;;;43.02;19.44;99238.41;5036071;28;20666;-72
2022/06/19 08:13:29;;;;;;;10.07;4.97;;;;;;;42.61;19.42;99236.22;5041852;28;20599;-71
2022/06/19 08:16:02;;;;;;;10.68;4.50;;;;;;;42.87;20.11;99245.13;5048466;28;20287;-72
2022/06/19 08:18:28;;;;;;;9.50;4.40;;;;;;;41.94;19.52;99233.63;5051392;28;20659;-71
2022/06/19 08:20:54;;;;;;;10.07;4.40;;;;;;;41.28;20.22;99234.31;5040692;28;20233;-72
2022/06/19 08:23:20;;;;;;;10.10;4.25;;;;;;;41.20;20.40;99227.78;5050418;28;20299;-72
2022/06/19 08:25:47;;;;;;;12.32;5.43;;;;;;;40.18;21.44;99229.88;5050812;28;20306;-70
2022/06/19 08:28:14;;;;;;;5.78;4.03;;;;;;;41.76;20.60;99230.06;5050893;28;20185;-73
2022/06/19 08:30:43;;;;;;;7.28;4.53;;;;;;;40.69;20.18;99223.63;5040938;28;20233;-72
2022/06/19 08:33:10;;;;;;;7.45;4.60;;;;;;;40.58;20.57;99237.34;5049933;28;20268;-72
2022/06/19 08:35:45;;;;;;;9.50;5.15;;;;;;;41.06;20.31;99224.38;5049384;28;20193;-73
2022/06/19 08:38:18;;;;;;;9.05;4.40;;;;;;;41.00;20.78;99225.59;5049174;28;20185;-73
2022/06/19 08:41:02;;;;;;;6.35;4.32;;;;;;;42.04;19.84;99224.41;5036973;28;20642;-72
2022/06/19 08:43:56;;;;;;;10.82;5.20;;;;;;;41.09;20.45;99231.84;5036324;28;20192;-72
2022/06/19 08:46:57;;;;;;;8.27;4.35;;;;;;;41.89;19.33;99241.88;5050500;28;20185;-72
2022/06/19 08:49:43;;;;;;;9.77;3.72;;;;;;;42.28;19.46;99242.13;5051089;28;20216;-72
2022/06/19 08:52:30;;;;;;;12.05;4.25;;;;;;;42.70;18.97;99237.81;5037859;28;20257;-72
2022/06/19 08:55:27;;;;;;;7.95;4.53;;;;;;;42.61;19.18;99238.91;5041703;28;20541;-73
2022/06/19 08:58:05;;;;;;;8.55;4.15;;;;;;;42.02;18.99;99234.75;5038782;28;20220;-72
2022/06/19 09:00:46;;;;;;;9.02;4.25;;;;;;;42.24;19.06;99229.22;5040348;28;20786;-73
2022/06/19 09:03:17;;;;;;;12.90;4.72;;;;;;;42.46;18.35;99242.91;5050027;28;20272;-72
2022/06/19 09:06:11;;;;;;;16.50;4.82;;;;;;;42.57;18.22;99246.88;5050444;28;20303;-72
2022/06/19 09:08:45;;;;;;;12.30;4.38;;;;;;;43.35;17.68;99254.06;5050856;28;20185;-72
2022/06/19 09:11:27;;;;;;;8.05;4.10;;;;;;;44.27;16.98;99261.88;5028024;28;20229;-73
2022/06/19 09:14:07;;;;;;;9.68;4.80;;;;;;;45.28;15.95;99266.22;5050189;28;20632;-73
2022/06/19 09:16:52;;;;;;;13.65;5.25;;;;;;;44.23;16.88;99261.75;5050005;28;20219;-72
2022/06/19 09:19:37;;;;;;;12.90;4.55;;;;;;;43.50;17.94;99266.28;5050556;28;20271;-72
2022/06/19 09:22:33;;;;;;;10.73;4.88;;;;;;;43.93;17.32;99278.00;5039457;28;20228;-72
2022/06/19 09:25:17;;;;;;;9.88;5.03;;;;;;;44.59;17.73;99260.34;5037152;28;20598;-72
2022/06/19 09:27:59;;;;;;;15.38;4.82;;;;;;;44.46;16.83;99266.84;5049943;28;20270;-71
2022/06/19 09:30:46;;;;;;;10.55;4.95;;;;;;;44.85;16.52;99270.19;5039395;28;20224;-72
2022/06/19 09:33:24;;;;;;;14.40;5.07;;;;;;;44.62;17.01;99265.13;5049511;28;20275;-72
2022/06/19 09:35:58;;;;;;;11.18;4.97;;;;;;;43.98;17.51;99258.88;5053485;28;20200;-73
2022/06/19 09:38:34;;;;;;;13.90;4.55;;;;;;;43.45;18.64;99268.38;5054651;28;20180;-72
2022/06/19 09:41:05;;;;;;;9.07;4.55;;;;;;;43.99;17.79;99265.91;5043881;28;20263;-72
2022/06/19 09:43:33;;;;;;;11.27;4.70;;;;;;;44.13;18.14;99268.34;5053445;28;20234;-72
2022/06/19 09:46:17;;;;;;;11.18;4.50;;;;;;;44.02;17.71;99269.88;5053988;28;20196;-71
2022/06/19 09:49:09;;;;;;;15.88;4.55;;;;;;;44.72;16.95;99265.81;5043574;28;20208;-72
2022/06/19 09:51:40;;;;;;;7.78;4.57;;;;;;;44.70;16.96;99265.38;5009909;28;20287;-71
2022/06/19 09:54:24;;;;;;;12.45;4.70;;;;;;;43.64;18.63;99276.09;5053194;28;20181;-72
2022/06/19 09:57:09;;;;;;;13.57;4.90;;;;;;;44.64;17.13;99260.13;5064636;28;20208;-71
2022/06/19 09:59:34;;;;;;;8.15;4.47;;;;;;;45.45;16.30;99267.13;5053919;28;20188;-73
2022/06/19 10:02:12;;;;;;;11.48;4.97;;;;;;;43.78;18.35;99256.94;5042796;28;20239;-72
2022/06/19 10:04:47;;;;;;;16.08;4.80;;;;;;;45.49;16.21;99253.69;5053913;28;20525;-72
2022/06/19 10:07:25;;;;;;;12.52;4.75;;;;;;;46.05;15.74;99253.88;5053287;28;20269;-72
2022/06/19 10:10:04;;;;;;;12.32;4.43;;;;;;;46.18;16.29;99248.41;5053356;28;20185;-72
2022/06/19 10:12:38;;;;;;;8.73;4.28;;;;;;;46.89;14.68;99259.69;5042387;28;20381;-72
2022/06/19 10:15:12;;;;;;;10.00;4.90;;;;;;;45.81;15.34;99253.91;5053848;28;20628;-72
2022/06/19 10:17:49;;;;;;;10.50;4.88;;;;;;;45.09;16.01;99266.75;5052843;28;20216;-72
2022/06/19 10:20:18;;;;;;;7.47;3.78;;;;;;;45.39;15.65;99258.44;5043625;28;20318;-71
2022/06/19 10:23:14;;;;;;;9.13;4.32;;;;;;;44.89;15.91;99262.97;5037640;28;20318;-72
2022/06/19 10:26:14;;;;;;;11.27;4.15;;;;;;;44.02;16.53;99264.44;5053147;28;20692;-71
2022/06/19 10:28:51;;;;;;;13.63;5.00;;;;;;;43.93;16.49;99259.06;5055667;28;20560;-72
2022/06/19 10:31:41;;;;;;;18.75;5.75;;;;;;;43.22;17.56;99255.88;5040264;28;20310;-71
2022/06/19 10:34:18;;;;;;;7.50;4.13;;;;;;;42.36;18.56;99261.03;5049039;28;20543;-70
2022/06/19 10:36:58;;;;;;;16.33;4.10;;;;;;;43.24;17.73;99260.16;5051411;28;20715;-69
2022/06/19 10:39:45;;;;;;;11.40;4.03;;;;;;;43.66;17.31;99255.69;5053023;28;20268;-71
2022/06/19 10:42:25;;;;;;;12.18;4.82;;;;;;;42.97;17.73;99262.91;5027392;28;20228;-72
2022/06/19 10:45:19;;;;;;;8.80;4.15;;;;;;;40.39;19.87;99256.38;5052878;28;20212;-72
2022/06/19 10:48:04;;;;;;;12.90;4.55;;;;;;;40.05;21.56;99252.19;5044749;28;20169;-71
2022/06/19 10:50:51;;;;;;;11.20;4.18;;;;;;;38.29;23.39;99253.50;5038499;28;20684;-71
2022/06/19 10:53:28;;;;;;;13.80;4.80;;;;;;;37.58;24.36;99260.16;5052116;28;20208;-70
2022/06/19 10:56:09;;;;;;;10.70;5.13;;;;;;;36.61;26.27;99259.84;5057867;28;20203;-71
2022/06/19 10:58:36;;;;;;;15.45;5.55;;;;;;;35.99;26.35;99260.09;5058297;28;20185;-71
2022/06/19 11:01:05;;;;;;;10.50;4.43;;;;;;;35.83;27.92;99258.53;5032489;28;20739;-70
2022/06/19 11:06:30;;;;;;;13.25;5.10;;;;;;;35.09;29.54;99274.09;5052120;28;20255;-72
2022/06/19 11:09:03;;;;;;;8.88;5.25;;;;;;;35.24;28.73;99263.41;5050946;28;20189;-71
2022/06/19 11:11:30;;;;;;;12.75;5.40;;;;;;;35.29;27.98;99259.94;5021089;28;20316;-71
2022/06/19 11:14:03;;;;;;;12.48;5.00;;;;;;;35.41;28.92;99249.78;5046644;28;20629;-71
2022/06/19 11:16:31;;;;;;;15.40;5.50;;;;;;;35.36;28.07;99242.53;5040880;28;20610;-71
2022/06/19 11:18:57;;;;;;;15.35;5.95;;;;;;;35.17;28.27;99247.66;5046619;28;20178;-72
2022/06/19 11:21:33;;;;;;;12.82;5.18;;;;;;;34.93;29.30;99250.06;5032851;28;20233;-71
2022/06/19 11:24:05;;;;;;;14.07;5.40;;;;;;;34.86;29.70;99255.66;5039126;28;20220;-72
2022/06/19 11:26:40;;;;;;;12.23;5.57;;;;;;;34.64;30.18;99255.84;5050694;28;20201;-71
2022/06/19 11:29:18;;;;;;;11.50;5.50;;;;;;;34.70;29.59;99256.66;5037926;28;20227;-72
2022/06/19 11:32:13;;;;;;;12.40;5.18;;;;;;;34.67;29.34;99252.66;5020695;28;20290;-72
2022/06/19 11:34:47;;;;;;;12.27;5.35;;;;;;;34.38;29.89;99255.78;5052603;28;20187;-72
2022/06/19 11:37:25;;;;;;;10.38;4.93;;;;;;;34.05;30.57;99243.59;5051421;28;20207;-72
2022/06/19 11:40:10;;;;;;;14.73;5.45;;;;;;;34.20;30.61;99245.53;5051842;28;20188;-71
2022/06/19 11:42:49;;;;;;;9.82;5.60;;;;;;;33.98;30.64;99243.84;5040811;28;20213;-71
2022/06/19 11:45:14;;;;;;;11.88;5.63;;;;;;;33.90;30.77;99247.84;5048934;28;20264;-72
2022/06/19 11:47:43;;;;;;;18.25;5.10;;;;;;;34.15;31.31;99234.84;5044662;28;20272;-72